Time;durP1;ratioP1;P1;durP2;ratioP2;P2;SDS_P1;SDS_P2;PMS_P1;PMS_P2;Temp;Humidity;BMP_temperature;BMP_pressure;BME280_temperature;BME280_humidity;BME280_pressure;Samples;Min_cycle;Max_cycle;Signal;HPM_P1;HPM_P2
2023/09/25 12:43:04;;;;;;;;;;;17.60;77.00;;;;;;5041665;28;20403;-69
2023/09/25 12:45:31;;;;;;;;;;;17.60;77.30;;;;;;5033771;28;20283;-69
2023/09/25 12:47:58;;;;;;;;;;;17.60;77.30;;;;;;5034374;28;19909;-68
2023/09/25 12:50:25;;;;;;;;;;;17.60;77.40;;;;;;5033626;28;20024;-69
2023/09/25 12:52:52;;;;;;;;;;;17.50;77.50;;;;;;5033502;28;19909;-69
2023/09/25 12:55:18;;;;;;;;;;;17.50;77.50;;;;;;5033851;28;19928;-69
2023/09/25 12:57:48;;;;;;;;;;;17.50;77.50;;;;;;5034027;28;19913;-69
2023/09/25 13:00:15;;;;;;;;;;;17.50;77.40;;;;;;5034593;28;19909;-69
2023/09/25 13:02:42;;;;;;;;;;;17.50;77.50;;;;;;5022575;28;19909;-69
2023/09/25 13:05:10;;;;;;;;;;;17.50;77.40;;;;;;5034015;28;19913;-68
2023/09/25 13:07:37;;;;;;;;;;;17.40;77.30;;;;;;5034497;28;19958;-69
2023/09/25 13:10:07;;;;;;;;;;;17.40;77.30;;;;;;5033097;28;19912;-68
2023/09/25 13:12:34;;;;;;;;;;;17.40;77.20;;;;;;5034036;28;19908;-69
2023/09/25 13:15:00;;;;;;;;;;;17.30;77.40;;;;;;5032699;28;19917;-69
2023/09/25 13:17:27;;;;;;;;;;;17.30;77.80;;;;;;5033495;28;19932;-70
2023/09/25 13:19:53;;;;;;;;;;;17.20;77.80;;;;;;5034088;28;19985;-70
2023/09/25 13:22:20;;;;;;;;;;;17.30;77.80;;;;;;5032742;28;19971;-70
2023/09/25 13:24:47;;;;;;;;;;;17.20;77.70;;;;;;5033970;28;19956;-70
2023/09/25 13:27:13;;;;;;;;;;;17.20;77.80;;;;;;5034325;28;19905;-70
2023/09/25 13:29:40;;;;;;;;;;;17.20;77.90;;;;;;5033972;28;20355;-69
2023/09/25 13:32:06;;;;;;;;;;;17.20;77.90;;;;;;5033753;28;19956;-69
2023/09/25 13:34:33;;;;;;;;;;;17.20;77.80;;;;;;5031206;28;19915;-69
2023/09/25 13:37:00;;;;;;;;;;;17.20;77.80;;;;;;5034212;28;19960;-69
2023/09/25 13:39:26;;;;;;;;;;;17.20;77.80;;;;;;5033937;28;19917;-69
2023/09/25 13:41:53;;;;;;;;;;;17.20;77.70;;;;;;5033578;28;20110;-69
2023/09/25 17:32:38;;;;;;;;;;;15.60;80.80;;;;;;5045768;28;19927;-68
2023/09/25 17:35:05;;;;;;;;;;;15.60;80.60;;;;;;5053886;28;19925;-68
2023/09/25 17:37:32;;;;;;;;;;;15.60;80.60;;;;;;5053848;28;19948;-68
2023/09/25 17:39:58;;;;;;;;;;;15.50;80.90;;;;;;5053186;28;19950;-68
2023/09/25 17:42:25;;;;;;;;;;;15.50;80.90;;;;;;5053351;28;19915;-68
2023/09/25 17:44:52;;;;;;;;;;;15.50;81.20;;;;;;5053889;28;20251;-69
2023/09/25 17:47:19;;;;;;;;;;;15.50;81.10;;;;;;5053313;28;19991;-68
2023/09/25 17:49:45;;;;;;;;;;;15.50;81.10;;;;;;5051356;28;20039;-70
2023/09/25 17:52:12;;;;;;;;;;;15.50;81.10;;;;;;5052485;28;19927;-69
2023/09/25 17:54:38;;;;;;;;;;;15.50;81.20;;;;;;5053627;28;19909;-69
2023/09/25 17:57:05;;;;;;;;;;;15.50;81.30;;;;;;5052844;28;19998;-70
2023/09/25 17:59:31;;;;;;;;;;;15.60;81.10;;;;;;5052618;28;19909;-69
2023/09/25 18:01:58;;;;;;;;;;;15.60;81.10;;;;;;5050065;28;19913;-69
2023/09/25 18:04:25;;;;;;;;;;;15.60;80.80;;;;;;5034770;28;20015;-69
2023/09/25 18:06:51;;;;;;;;;;;15.60;80.70;;;;;;5053088;28;19905;-70
2023/09/25 18:09:18;;;;;;;;;;;15.60;80.90;;;;;;5053289;28;20370;-70
2023/09/25 18:11:44;;;;;;;;;;;15.70;81.00;;;;;;5052994;28;19979;-70
2023/09/25 18:14:11;;;;;;;;;;;15.70;80.80;;;;;;5050860;28;19908;-68
2023/09/25 18:16:38;;;;;;;;;;;15.70;80.80;;;;;;5048873;28;19917;-68
2023/09/25 18:19:04;;;;;;;;;;;15.60;80.70;;;;;;5050615;28;19935;-68
2023/09/25 18:21:31;;;;;;;;;;;15.60;81.30;;;;;;5051106;28;20345;-69
2023/09/25 18:23:58;;;;;;;;;;;15.60;81.80;;;;;;5051801;28;20325;-68
2023/09/25 18:26:24;;;;;;;;;;;15.60;82.50;;;;;;5051639;28;19908;-68
2023/09/25 18:28:51;;;;;;;;;;;15.70;82.50;;;;;;5051690;28;20362;-69
2023/09/25 18:31:18;;;;;;;;;;;15.60;82.20;;;;;;5051072;28;19909;-68
2023/09/25 18:33:44;;;;;;;;;;;15.60;82.10;;;;;;5032528;28;19956;-69
2023/09/25 18:36:12;;;;;;;;;;;15.60;82.10;;;;;;5030317;28;19917;-69
2023/09/25 18:38:39;;;;;;;;;;;15.60;82.10;;;;;;5032404;28;19909;-69
2023/09/25 18:41:05;;;;;;;;;;;15.70;82.20;;;;;;5033015;28;19916;-68
2023/09/25 18:43:32;;;;;;;;;;;15.60;82.00;;;;;;5032453;28;19909;-68
2023/09/25 18:45:59;;;;;;;;;;;15.60;82.10;;;;;;5015077;28;19905;-68
2023/09/25 18:48:25;;;;;;;;;;;15.60;82.20;;;;;;5029463;28;19959;-70
2023/09/25 18:50:52;;;;;;;;;;;15.50;82.30;;;;;;5031957;28;19905;-69
2023/09/25 18:53:18;;;;;;;;;;;15.60;82.40;;;;;;5031623;28;20275;-70
2023/09/25 18:55:45;;;;;;;;;;;15.50;82.70;;;;;;5032426;28;19913;-70
2023/09/25 18:58:12;;;;;;;;;;;15.50;82.90;;;;;;5032376;28;20376;-69
2023/09/25 19:00:45;;;;;;;;;;;15.60;83.00;;;;;;5031748;28;19913;-69
2023/09/25 19:03:12;;;;;;;;;;;15.70;82.80;;;;;;5032641;28;20320;-69
2023/09/25 19:05:38;;;;;;;;;;;15.70;82.90;;;;;;5032750;28;19905;-69
2023/09/25 19:08:05;;;;;;;;;;;15.70;83.00;;;;;;5015166;28;19909;-69
2023/09/25 19:10:32;;;;;;;;;;;15.70;82.90;;;;;;5032205;28;19909;-69
2023/09/25 19:12:58;;;;;;;;;;;15.70;82.80;;;;;;5030450;28;19953;-69
2023/09/25 19:15:25;;;;;;;;;;;15.70;82.90;;;;;;5031701;28;19928;-69
2023/09/25 19:17:52;;;;;;;;;;;15.70;82.80;;;;;;5015365;28;19951;-69
2023/09/25 19:20:18;;;;;;;;;;;15.70;82.80;;;;;;5030004;28;19909;-69
2023/09/25 19:22:45;;;;;;;;;;;15.70;82.70;;;;;;5032533;28;20000;-69
2023/09/25 19:25:12;;;;;;;;;;;15.70;82.80;;;;;;5028345;28;20252;-69
2023/09/25 19:27:39;;;;;;;;;;;15.70;82.80;;;;;;5031324;28;19913;-69
2023/09/25 19:30:05;;;;;;;;;;;15.70;82.90;;;;;;5032096;28;19905;-69
2023/09/25 19:32:32;;;;;;;;;;;15.70;83.00;;;;;;5042114;28;19920;-69
2023/09/25 19:34:59;;;;;;;;;;;15.70;82.90;;;;;;5052476;28;22244;-69
2023/09/25 19:37:25;;;;;;;;;;;15.70;82.70;;;;;;5049093;28;19913;-69
2023/09/25 19:39:52;;;;;;;;;;;15.80;82.70;;;;;;5051033;28;19905;-69
2023/09/25 19:42:18;;;;;;;;;;;15.80;82.60;;;;;;5052403;28;19987;-69
2023/09/25 19:44:45;;;;;;;;;;;15.70;82.30;;;;;;5049963;28;20007;-69
2023/09/25 19:47:11;;;;;;;;;;;15.70;81.90;;;;;;5050623;28;19915;-69
2023/09/25 19:49:39;;;;;;;;;;;15.70;82.00;;;;;;5051999;28;19905;-69
2023/09/25 19:52:05;;;;;;;;;;;15.70;81.90;;;;;;5050473;28;20402;-69
2023/09/25 19:54:32;;;;;;;;;;;15.70;81.80;;;;;;5052009;28;19909;-69
2023/09/25 19:57:11;;;;;;;;;;;15.70;81.80;;;;;;5050688;28;19917;-69
2023/09/25 19:59:38;;;;;;;;;;;15.70;81.90;;;;;;5051558;28;19905;-69
2023/09/25 20:02:04;;;;;;;;;;;15.70;81.70;;;;;;5055040;28;19904;-69
2023/09/25 20:04:32;;;;;;;;;;;15.70;81.50;;;;;;5053981;28;20363;-69
2023/09/25 20:06:58;;;;;;;;;;;15.70;81.40;;;;;;5039508;28;19962;-69
2023/09/25 20:09:25;;;;;;;;;;;15.70;80.50;;;;;;5054690;28;19936;-69
2023/09/25 20:11:52;;;;;;;;;;;15.70;80.50;;;;;;5053982;28;20256;-69
2023/09/25 20:14:19;;;;;;;;;;;15.70;80.50;;;;;;5055287;28;19908;-69
2023/09/25 20:16:46;;;;;;;;;;;15.70;79.80;;;;;;5050310;28;20027;-69
2023/09/25 20:19:12;;;;;;;;;;;15.70;79.40;;;;;;5054821;28;19909;-69
2023/09/25 20:21:39;;;;;;;;;;;15.80;79.70;;;;;;5055346;28;19912;-69
2023/09/25 20:24:06;;;;;;;;;;;15.80;79.20;;;;;;5055235;28;19943;-69
2023/09/25 20:26:32;;;;;;;;;;;15.90;79.00;;;;;;5054747;28;20389;-69
2023/09/25 20:28:59;;;;;;;;;;;16.00;78.70;;;;;;5053831;28;19909;-69
2023/09/25 20:31:26;;;;;;;;;;;16.00;79.10;;;;;;5054782;28;19909;-69
2023/09/25 20:33:52;;;;;;;;;;;16.00;79.40;;;;;;5054772;28;19909;-69
2023/09/25 20:36:19;;;;;;;;;;;16.00;79.20;;;;;;5054727;28;19917;-69
2023/09/25 20:38:45;;;;;;;;;;;16.10;79.20;;;;;;5053439;28;19978;-69
2023/09/25 20:41:12;;;;;;;;;;;16.20;79.20;;;;;;5055346;28;20075;-68
2023/09/25 20:43:39;;;;;;;;;;;16.20;79.30;;;;;;5055034;28;19912;-69
2023/09/25 20:46:05;;;;;;;;;;;16.20;79.70;;;;;;5054514;28;20396;-69
2023/09/25 20:48:32;;;;;;;;;;;16.20;79.90;;;;;;5052733;28;19909;-69
2023/09/25 20:51:01;;;;;;;;;;;16.20;79.90;;;;;;5054851;28;20279;-69
